Používaním stránok prevádzkovaných PROFIPILOT, s.r.o. súhlasíte s používaním cookies, ktoré nám pomáhajú zabezpečiť lepšie služby.OK

Briefing

MAPA | METAR | TAF | METEO SITUÁCIA
MAPA | METAR | TAF | METEO SITUÁCIA

Predpoveď na dnes

Jasno až polojasno, na severe a východe na viacerých miestach, inde len ojedinele zamračené nízkou oblačnosťou alebo hmlisto. Možnosť slabého sneženia. Chladno. Najvyššia denná teplota -5 až +1, v dolinách a kotlinách Banskobystrického kraja a pri hmlistom počasí -11 až -5 st. Na horách vo výške 1500 m okolo -1 st. Bezvetrie alebo slabý vietor. Predpokladané množstvo zrážok: ojedinele do 1 mm / do 1 cm snehu

SHMÚ, OMPaV, PV 21.1.2017 04:15 SEČ

MAPA | METAR | TAF | METEO SITUÁCIA

TAF - Letisková predpoveď

21.01.2017 - 05:00 UTC

TAF LZSL 210500Z 2106/2115 VRB02KT 3000 BCFG FEW002
     PROB30 2106/2109 0200 FZFG BKN002
     BECMG 2110/2112 6000 NSW NSC=
 TAF LZPP 210500Z 2106/2115 03003KT 6000 NSC
     TEMPO 2106/2109 2500 BCFG FEW002=
 TAF LZZI 210500Z 2106/2115 VRB02KT 3000 BR OVC016
     TEMPO 2106/2109 1800 BR OVC010
     BECMG 2110/2112 6000 NSW SCT016 BKN030=
 

21.01.2017 - 05:00 UTC

TAF LZIB 210500Z 2106/2206 11005KT 8000 NSC
     TEMPO 2106/2109 02003KT 2000 BR FEW005
     BECMG 2120/2122 3000 BR
     TEMPO 2200/2206 1200 BCFG BKN003=
 TAF LZKZ 210500Z 2106/2206 VRB02KT 9999 SCT040
     TEMPO 2106/2109 4000 BCFG
     BECMG 2118/2120 2000 BR SCT003
     BECMG 2122/2200 0800 FZFG BKN003
     PROB40 2200/2206 0200 FZFG OVC001=
 TAF LZTT 210500Z 2106/2206 25005KT 9999 SCT040
     PROB30 TEMPO 2106/2108 2000 BCFG BKN010
     BECMG 2117/2119 VRB02KT 2500 BCFG SCT004
     TEMPO 2120/2206 1100 BR BKN003=
 

21.01.2017 - 02:00 UTC

TAF LZSL 210200Z 2103/2112 VRB02KT 2000 BR NSC
     TEMPO 2103/2109 0800 FZFG SCT002
     PROB30 2103/2107 0200 FZFG OVC001
     BECMG 2109/2111 5000 BR=
 TAF LZZI 210200Z 2103/2112 VRB02KT 3000 BR NSC
     TEMPO 2103/2108 1500 BR SCT010
     BECMG 2109/2111 5000 BR=
 
MAPA | METAR | TAF | METEO SITUÁCIA

METAR - Letisková meteo správa

Letisková meteorologická správa METAR

Meteorologické informácie z ďalších profesionálnych meteorologických staníc SHMÚ zobrazené v tvare zodpovedajúcom pravidlám kódovania správ METAR sú uvedené v položke „METSYN Informácie o správe METAR

21.01.2017 - 06:00 UTC

METAR LZIB 210600Z 04003KT 4600 BR NSC M12/M13 Q1034 R13/9/2095
 NOSIG=
 METAR LZKZ 210600Z 03003KT 4000 BR FEW012 M11/M12 Q1033 NOSIG=
 METAR LZPP 210600Z 34003KT 5000 BR NSC M15/M17 Q1034=
 METAR LZSL 210600Z 00000KT 2000 BR SCT003 M18/M20 Q1033=
 METAR LZTT 210600Z 31007KT 9999 FEW013 M07/M10 Q1030 NOSIG=
 METAR LZZI 210600Z 08004KT 3300 BR BKN017 M09/M11 Q1033=
 

21.01.2017 - 05:30 UTC

METAR LZIB 210530Z 04003KT 5000 BR NSC M11/M13 Q1034 R13/9/2095
 NOSIG=
 METAR LZKZ 210530Z VRB01KT 5000 BR FEW012 M12/M14 Q1033 NOSIG=
 METAR LZPP 210530Z 03005KT 5000 BR NSC M12/M13 Q1034=
 METAR LZSL 210530Z 00000KT 2500 BR BKN002 M18/M20 Q1033=
 METAR LZTT 210530Z 27011KT 9999 FEW013 M07/M11 Q1029 NOSIG=
 METAR LZZI 210530Z VRB01KT 3500 BR BKN017 M10/M11 Q1033=
 

21.01.2017 - 06:00 UTC

METAR LZMC 210600Z 00000KT 4000 BR SKC M14/M15 Q1033=
 METAR LZPW 210600Z VRB01KT 4000 BR OVC021 M06/M08
 Q1033=
 
načítavam...